.
WxDataArchive / Data Records for 2016-02-25
2016-02-24 February 2016 2016-02-26

Data Records for Thursday, 25 February 2016

Time	Temp	Chill	HIndex	Humid	Dewpt	 Wind 	HiWind	WindDir	Rain 	Barom
-----	----	-----	------	-----	-----	------	------	-------	-----	-----
00:00	30.9	30.9	30.9	85	26.9	2	10	338	0.00	29.438 
00:05	30.7	30.7	30.7	85	26.7	3	10	292	0.00	29.438 
00:10	30.7	30.7	30.7	84	26.4	3	7	292	0.00	29.438 
00:15	30.7	30.7	30.7	84	26.4	2	7	270	0.00	29.441 
00:20	30.7	30.7	30.7	84	26.4	3	6	292	0.00	29.441 
00:25	30.7	30.7	30.7	85	26.7	2	5	270	0.00	29.441 
00:30	30.7	30.7	30.7	85	26.7	3	7	292	0.00	29.447 
00:35	30.7	30.7	30.7	85	26.7	2	6	315	0.00	29.447 
00:40	30.7	30.7	30.7	85	26.7	3	6	292	0.00	29.447 
00:45	30.7	30.7	30.7	86	27.0	2	6	270	0.00	29.455 
00:50	30.6	30.6	30.6	86	26.9	2	8	292	0.00	29.455 
00:55	30.6	30.6	30.6	87	27.2	3	9	292	0.00	29.455 
01:00	30.6	30.6	30.6	87	27.2	3	8	292	0.00	29.461 
01:05	30.4	30.4	30.4	87	27.0	2	6	315	0.00	29.461 
01:10	30.4	30.4	30.4	87	27.0	2	5	270	0.00	29.461 
01:15	30.4	30.4	30.4	87	27.0	2	6	292	0.00	29.463 
01:20	30.4	30.4	30.4	88	27.3	3	10	292	0.00	29.463 
01:25	30.4	30.4	30.4	88	27.3	2	6	292	0.00	29.463 
01:30	30.4	30.4	30.4	88	27.3	3	10	292	0.00	29.470 
01:35	30.4	30.4	30.4	88	27.3	2	5	292	0.00	29.470 
01:40	30.4	30.4	30.4	88	27.3	2	6	292	0.00	29.470 
01:45	30.6	30.6	30.6	88	27.5	2	5	292	0.00	29.472 
01:50	30.6	30.6	30.6	88	27.5	2	6	315	0.00	29.472 
01:55	30.7	30.7	30.7	88	27.6	3	5	292	0.00	29.472 
02:00	30.7	30.7	30.7	88	27.6	2	4	292	0.00	29.473 
02:05	30.9	30.9	30.9	88	27.8	2	5	292	0.00	29.473 
02:10	31.0	31.0	31.0	87	27.6	3	6	292	0.00	29.473 
02:15	31.2	31.2	31.2	87	27.8	3	9	292	0.00	29.477 
02:20	31.2	31.2	31.2	86	27.5	2	6	270	0.00	29.477 
02:25	31.3	31.3	31.3	86	27.6	3	9	292	0.00	29.477 
02:30	31.3	31.3	31.3	86	27.6	3	10	292	0.00	29.480 
02:35	31.5	31.5	31.5	86	27.8	3	9	292	0.00	29.480 
02:40	31.5	31.5	31.5	86	27.8	3	5	292	0.00	29.480 
02:45	31.5	31.5	31.5	86	27.8	3	7	292	0.00	29.484 
02:50	31.5	31.5	31.5	86	27.8	3	6	292	0.00	29.484 
02:55	31.6	31.6	31.6	86	27.9	3	6	315	0.00	29.484 
03:00	31.6	31.6	31.6	86	27.9	2	5	292	0.00	29.485 
03:05	31.8	31.8	31.8	86	28.1	2	6	292	0.00	29.485 
03:10	31.8	31.8	31.8	85	27.8	3	11	292	0.00	29.485 
03:15	31.9	31.9	31.9	85	27.9	3	6	292	0.00	29.487 
03:20	31.9	31.9	31.9	85	27.9	3	7	292	0.00	29.487 
03:25	32.1	28.2	32.1	84	27.8	4	11	315	0.00	29.487 
03:30	32.1	32.1	32.1	84	27.8	3	7	292	0.00	29.495 
03:35	32.1	32.1	32.1	85	28.1	2	9	315	0.00	29.495 
03:40	32.1	32.1	32.1	85	28.1	2	9	292	0.00	29.495 
03:45	32.1	32.1	32.1	85	28.1	3	7	292	0.00	29.500 
03:50	32.1	32.1	32.1	86	28.4	3	6	292	0.00	29.500 
03:55	31.9	31.9	31.9	86	28.2	3	6	292	0.00	29.500 
04:00	31.9	31.9	31.9	86	28.2	3	7	315	0.00	29.504 
04:05	31.9	31.9	31.9	86	28.2	3	9	292	0.00	29.504 
04:10	31.9	31.9	31.9	87	28.5	3	7	292	0.00	29.504 
04:15	31.9	31.9	31.9	87	28.5	3	7	292	0.00	29.512 
04:20	31.9	31.9	31.9	87	28.5	3	7	315	0.00	29.512 
04:25	32.1	32.1	32.1	87	28.7	2	9	292	0.00	29.512 
04:30	32.1	32.1	32.1	87	28.7	3	9	292	0.00	29.519 
04:35	32.1	32.1	32.1	87	28.7	3	7	315	0.00	29.519 
04:40	31.9	31.9	31.9	87	28.5	3	7	315	0.00	29.519 
04:45	31.9	31.9	31.9	88	28.8	3	6	270	0.00	29.531 
04:50	31.9	31.9	31.9	88	28.8	3	9	292	0.00	29.531 
04:55	31.9	31.9	31.9	88	28.8	3	6	292	0.00	29.531 
05:00	31.9	31.9	31.9	88	28.8	2	4	292	0.00	29.535 
05:05	31.9	31.9	31.9	88	28.8	3	6	292	0.00	29.535 
05:10	31.9	31.9	31.9	89	29.0	3	6	292	0.00	29.535 
05:15	31.9	31.9	31.9	89	29.0	2	4	248	0.00	29.548 
05:20	31.9	31.9	31.9	89	29.0	2	5	315	0.00	29.548 
05:25	31.9	31.9	31.9	89	29.0	3	6	292	0.00	29.548 
05:30	31.9	31.9	31.9	89	29.0	2	5	292	0.00	29.554 
05:35	31.9	31.9	31.9	90	29.3	2	7	315	0.00	29.554 
05:40	31.9	31.9	31.9	90	29.3	2	6	292	0.00	29.554 
05:45	31.9	31.9	31.9	90	29.3	2	5	270	0.00	29.564 
05:50	31.9	31.9	31.9	90	29.3	3	7	292	0.00	29.564 
05:55	31.8	31.8	31.8	90	29.2	2	6	248	0.00	29.564 
06:00	31.8	31.8	31.8	90	29.2	3	9	292	0.00	29.567 
06:05	31.8	31.8	31.8	91	29.5	3	6	315	0.00	29.567 
06:10	31.8	31.8	31.8	91	29.5	3	11	315	0.00	29.567 
06:15	31.8	31.8	31.8	91	29.5	3	11	315	0.00	29.577 
06:20	31.8	31.8	31.8	91	29.5	3	7	292	0.00	29.577 
06:25	31.8	31.8	31.8	91	29.5	2	6	292	0.00	29.577 
06:30	31.8	31.8	31.8	91	29.5	3	7	338	0.00	29.584 
06:35	31.8	31.8	31.8	91	29.5	2	5	270	0.00	29.584 
06:40	31.8	31.8	31.8	91	29.5	2	6	270	0.00	29.584 
06:45	31.8	31.8	31.8	91	29.5	2	5	292	0.00	29.594 
06:50	31.8	31.8	31.8	91	29.5	3	6	292	0.00	29.594 
06:55	31.8	31.8	31.8	91	29.5	2	7	292	0.00	29.594 
07:00	31.9	31.9	31.9	92	29.8	2	7	292	0.00	29.599 
07:05	31.9	31.9	31.9	91	29.6	3	7	292	0.00	29.599 
07:10	31.9	31.9	31.9	92	29.8	2	6	270	0.00	29.599 
07:15	31.9	31.9	31.9	92	29.8	2	6	315	0.00	29.608 
07:20	31.9	31.9	31.9	92	29.8	3	7	292	0.00	29.608 
07:25	31.9	31.9	31.9	92	29.8	3	7	315	0.00	29.608 
07:30	31.9	31.9	31.9	92	29.8	2	5	315	0.00	29.614 
07:35	31.9	31.9	31.9	92	29.8	2	5	292	0.00	29.614 
07:40	31.9	31.9	31.9	92	29.8	3	7	292	0.00	29.614 
07:45	31.9	31.9	31.9	92	29.8	3	7	315	0.00	29.622 
07:50	31.9	31.9	31.9	92	29.8	3	9	315	0.00	29.622 
07:55	31.9	31.9	31.9	92	29.8	2	6	338	0.00	29.622 
08:00	31.9	31.9	31.9	92	29.8	3	7	292	0.00	29.630 
08:05	31.9	31.9	31.9	92	29.8	2	6	248	0.00	29.630 
08:10	31.9	31.9	31.9	92	29.8	2	6	315	0.00	29.630 
08:15	31.9	31.9	31.9	92	29.8	3	7	292	0.00	29.642 
08:20	31.9	31.9	31.9	92	29.8	3	7	315	0.00	29.642 
08:25	32.1	32.1	32.1	92	30.0	2	6	292	0.00	29.642 
08:30	32.1	32.1	32.1	92	30.0	3	6	0	0.00	29.647 
08:35	32.1	32.1	32.1	92	30.0	3	7	292	0.00	29.647 
08:40	32.1	32.1	32.1	92	30.0	3	6	315	0.00	29.647 
08:45	32.1	28.2	32.1	92	30.0	4	10	270	0.00	29.657 
08:50	32.2	32.2	32.2	92	30.1	3	7	292	0.00	29.657 
08:55	32.2	32.2	32.2	92	30.1	3	7	292	0.00	29.657 
09:00	32.2	28.3	32.2	92	30.1	4	8	292	0.00	29.664 
09:05	32.2	32.2	32.2	92	30.1	3	6	292	0.00	29.664 
09:10	32.2	32.2	32.2	92	30.1	3	10	292	0.00	29.664 
09:15	32.2	32.2	32.2	92	30.1	3	5	292	0.00	29.677 
09:20	32.2	32.2	32.2	92	30.1	3	7	292	0.00	29.677 
09:25	32.2	28.3	32.2	92	30.1	4	10	270	0.00	29.677 
09:30	32.2	28.3	32.2	91	29.9	4	14	292	0.00	29.682 
09:35	32.2	28.3	32.2	91	29.9	4	9	338	0.00	29.682 
09:40	32.2	32.2	32.2	91	29.9	3	6	292	0.00	29.682 
09:45	32.4	32.4	32.4	91	30.1	3	10	292	0.00	29.692 
09:50	32.4	32.4	32.4	91	30.1	3	6	292	0.00	29.692 
09:55	32.4	32.4	32.4	91	30.1	3	6	270	0.00	29.692 
10:00	32.4	32.4	32.4	91	30.1	3	5	315	0.01	29.700 
10:05	32.4	32.4	32.4	91	30.1	3	11	315	0.00	29.700 
10:10	32.4	32.4	32.4	91	30.1	3	10	270	0.00	29.700 
10:15	32.5	32.5	32.5	91	30.2	3	6	292	0.00	29.708 
10:20	32.5	32.5	32.5	91	30.2	3	6	270	0.00	29.708 
10:25	32.5	32.5	32.5	91	30.2	3	9	292	0.00	29.708 
10:30	32.5	28.7	32.5	90	29.9	4	9	338	0.00	29.714 
10:35	32.5	28.7	32.5	90	29.9	4	9	270	0.00	29.714 
10:40	32.7	32.7	32.7	90	30.1	3	7	292	0.00	29.714 
10:45	32.7	32.7	32.7	90	30.1	3	6	270	0.00	29.724 
10:50	32.8	32.8	32.8	89	29.9	2	6	292	0.01	29.724 
10:55	32.8	32.8	32.8	89	29.9	3	7	315	0.00	29.724 
11:00	32.8	32.8	32.8	89	29.9	3	10	292	0.00	29.734 
11:05	32.8	32.8	32.8	89	29.9	2	6	292	0.00	29.734 
11:10	32.8	32.8	32.8	89	29.9	3	7	292	0.00	29.734 
11:15	32.8	32.8	32.8	88	29.6	3	7	338	0.00	29.741 
11:20	32.8	29.0	32.8	88	29.6	4	12	292	0.01	29.741 
11:25	32.9	32.9	32.9	88	29.7	3	6	315	0.00	29.741 
11:30	32.9	28.1	32.9	87	29.5	5	12	292	0.00	29.746 
11:35	33.2	29.5	33.2	86	29.5	4	11	270	0.00	29.746 
11:40	33.4	29.7	33.4	86	29.7	4	9	315	0.00	29.746 
11:45	33.5	29.8	33.5	85	29.5	4	9	270	0.00	29.755 
11:50	33.5	33.5	33.5	84	29.2	3	11	292	0.00	29.755 
11:55	33.4	28.7	33.4	83	28.8	5	12	292	0.00	29.755 
12:00	33.4	29.7	33.4	83	28.8	4	10	315	0.00	29.765 
12:05	33.4	28.7	33.4	82	28.5	5	10	292	0.00	29.765 
12:10	33.2	27.7	33.2	81	28.0	6	10	292	0.01	29.765 
12:15	33.4	29.7	33.4	81	28.2	4	12	292	0.00	29.770 
12:20	33.4	28.7	33.4	81	28.2	5	12	292	0.00	29.770 
12:25	33.2	29.5	33.2	81	28.0	4	9	292	0.00	29.770 
12:30	33.1	29.3	33.1	81	27.9	4	10	292	0.00	29.785 
12:35	32.9	28.1	32.9	81	27.7	5	12	292	0.00	29.785 
12:40	32.9	29.1	32.9	81	27.7	4	9	270	0.00	29.785 
12:45	32.9	32.9	32.9	81	27.7	3	8	270	0.00	29.791 
12:50	32.9	29.1	32.9	81	27.7	4	15	270	0.00	29.791 
12:55	32.9	29.1	32.9	81	27.7	4	12	292	0.00	29.791 
13:00	33.1	33.1	33.1	81	27.9	3	7	292	0.00	29.795 
13:05	33.2	29.5	33.2	80	27.7	4	13	292	0.00	29.795 
13:10	33.4	29.7	33.4	78	27.3	4	9	292	0.00	29.795 
13:15	33.4	28.7	33.4	77	27.0	5	10	292	0.00	29.800 
13:20	33.4	29.7	33.4	77	27.0	4	11	292	0.00	29.800 
13:25	33.4	33.4	33.4	77	27.0	3	7	292	0.00	29.800 
13:30	33.5	33.5	33.5	77	27.1	3	8	270	0.00	29.804 
13:35	33.5	28.8	33.5	75	26.4	5	11	292	0.01	29.804 
13:40	33.5	29.8	33.5	75	26.4	4	8	292	0.00	29.804 
13:45	33.5	28.8	33.5	73	25.8	5	10	292	0.00	29.807 
13:50	33.7	30.0	33.7	73	26.0	4	10	292	0.00	29.807 
13:55	33.7	30.0	33.7	73	26.0	4	13	292	0.00	29.807 
14:00	33.5	28.0	33.5	71	25.1	6	12	292	0.00	29.818 
14:05	33.5	29.8	33.5	72	25.5	4	9	315	0.00	29.818 
14:10	33.7	30.0	33.7	71	25.3	4	13	315	0.00	29.818 
14:15	33.8	29.2	33.8	71	25.4	5	9	315	0.00	29.819 
14:20	34.0	29.4	34.0	70	25.3	5	13	292	0.00	29.819 
14:25	34.3	34.3	34.3	71	25.9	3	7	315	0.00	29.819 
14:30	34.6	31.1	34.6	70	25.8	4	11	292	0.00	29.829 
14:35	34.7	30.2	34.7	68	25.2	5	10	292	0.00	29.829 
14:40	34.4	29.9	34.4	66	24.2	5	11	292	0.00	29.829 
14:45	34.3	30.7	34.3	68	24.9	4	11	292	0.00	29.834 
14:50	34.6	31.1	34.6	67	24.8	4	13	292	0.00	29.834 
14:55	34.6	34.6	34.6	69	25.5	3	7	292	0.00	29.834 
15:00	34.3	29.8	34.3	66	24.1	5	11	292	0.00	29.846 
15:05	34.4	34.4	34.4	67	24.6	3	10	292	0.00	29.846 
15:10	34.6	31.1	34.6	67	24.8	4	10	292	0.00	29.846 
15:15	34.6	34.6	34.6	67	24.8	3	9	270	0.00	29.851 
15:20	34.4	29.9	34.4	65	23.9	5	12	292	0.00	29.851 
15:25	34.0	28.6	34.0	65	23.5	6	14	292	0.00	29.851 
15:30	34.1	30.5	34.1	66	23.9	4	11	315	0.00	29.863 
15:35	34.7	34.7	34.7	67	24.9	3	7	292	0.00	29.863 
15:40	34.4	29.9	34.4	64	23.5	5	13	292	0.00	29.863 
15:45	34.0	29.4	34.0	65	23.5	5	12	292	0.00	29.880 
15:50	33.5	28.8	33.5	65	23.0	5	13	292	0.00	29.880 
15:55	33.4	29.7	33.4	65	22.9	4	9	292	0.00	29.880 
16:00	33.2	29.5	33.2	65	22.7	4	9	315	0.00	29.892 
16:05	33.1	28.4	33.1	65	22.6	5	11	292	0.00	29.892 
16:10	32.9	28.1	32.9	66	22.8	5	12	315	0.00	29.892 
16:15	32.9	29.1	32.9	66	22.8	4	8	292	0.00	29.900 
16:20	32.8	28.0	32.8	67	23.1	5	13	292	0.00	29.900 
16:25	32.7	27.9	32.7	67	23.0	5	8	270	0.00	29.900 
16:30	32.4	27.5	32.4	67	22.7	5	13	270	0.00	29.913 
16:35	31.9	27.0	31.9	65	21.5	5	12	292	0.00	29.913 
16:40	31.6	26.6	31.6	66	21.6	5	14	292	0.00	29.913 
16:45	31.6	27.6	31.6	67	21.9	4	10	292	0.00	29.924 
16:50	31.5	27.5	31.5	68	22.2	4	10	292	0.00	29.924 
16:55	31.5	27.5	31.5	68	22.2	4	10	292	0.00	29.924 
17:00	31.3	25.4	31.3	66	21.3	6	14	292	0.00	29.931 
17:05	31.2	25.3	31.2	66	21.2	6	15	292	0.00	29.931 
17:10	31.0	25.9	31.0	67	21.3	5	14	292	0.00	29.931 
17:15	31.0	25.9	31.0	67	21.3	5	12	315	0.00	29.940 
17:20	31.0	26.9	31.0	68	21.7	4	11	292	0.00	29.940 
17:25	30.9	24.2	30.9	67	21.3	7	13	292	0.00	29.940 
17:30	30.7	26.6	30.7	68	21.4	4	8	270	0.00	29.951 
17:35	30.7	26.6	30.7	68	21.4	4	11	292	0.00	29.951 
17:40	30.4	24.3	30.4	66	20.4	6	13	315	0.00	29.951 
17:45	30.4	30.4	30.4	67	20.8	3	13	292	0.00	29.962 
17:50	30.3	26.1	30.3	68	21.0	4	12	292	0.00	29.962 
17:55	30.3	25.1	30.3	66	20.3	5	13	292	0.00	29.962 
18:00	30.1	24.8	30.1	67	20.5	5	13	292	0.00	29.973 
18:05	30.1	25.9	30.1	68	20.8	4	11	292	0.00	29.973 
18:10	30.1	25.9	30.1	68	20.8	4	10	292	0.00	29.973 
18:15	30.0	24.7	30.0	67	20.4	5	10	292	0.00	29.981 
18:20	30.0	25.8	30.0	68	20.7	4	13	315	0.00	29.981 
18:25	29.8	25.5	29.8	68	20.5	4	9	292	0.00	29.981 
18:30	29.8	25.5	29.8	69	20.9	4	12	292	0.00	29.994 
18:35	29.7	24.4	29.7	67	20.1	5	14	315	0.00	29.994 
18:40	29.7	29.7	29.7	68	20.5	3	8	292	0.00	29.994 
18:45	29.5	25.2	29.5	68	20.3	4	9	292	0.00	30.000 
18:50	29.5	25.2	29.5	68	20.3	4	17	292	0.00	30.000 
18:55	29.5	24.1	29.5	68	20.3	5	11	292	0.00	30.000 
19:00	29.4	25.1	29.4	68	20.2	4	13	292	0.00	30.010 
19:05	29.4	25.1	29.4	69	20.5	4	9	292	0.00	30.010 
19:10	29.4	25.1	29.4	68	20.2	4	11	270	0.00	30.010 
19:15	29.3	23.9	29.3	68	20.1	5	13	292	0.00	30.018 
19:20	29.3	25.0	29.3	68	20.1	4	10	292	0.00	30.018 
19:25	29.1	22.8	29.1	69	20.2	6	15	292	0.00	30.018 
19:30	29.1	29.1	29.1	69	20.2	3	6	292	0.00	30.029 
19:35	29.0	23.6	29.0	69	20.1	5	13	338	0.00	30.029 
19:40	29.0	24.6	29.0	69	20.1	4	10	292	0.00	30.029 
19:45	29.0	24.6	29.0	69	20.1	4	9	270	0.00	30.033 
19:50	29.0	29.0	29.0	69	20.1	2	8	292	0.00	30.033 
19:55	28.8	28.8	28.8	70	20.3	3	7	292	0.00	30.033 
20:00	28.8	28.8	28.8	70	20.3	3	7	292	0.00	30.036 
20:05	28.8	24.4	28.8	70	20.3	4	12	338	0.00	30.036 
20:10	28.8	28.8	28.8	70	20.3	3	7	292	0.00	30.036 
20:15	28.8	28.8	28.8	71	20.6	3	6	292	0.00	30.039 
20:20	28.8	28.8	28.8	71	20.6	3	9	292	0.00	30.039 
20:25	28.8	28.8	28.8	71	20.6	3	10	292	0.00	30.039 
20:30	28.8	28.8	28.8	71	20.6	3	7	292	0.00	30.043 
20:35	28.8	24.4	28.8	71	20.6	4	12	315	0.00	30.043 
20:40	28.8	28.8	28.8	71	20.6	3	10	292	0.00	30.043 
20:45	28.8	28.8	28.8	72	20.9	2	6	292	0.00	30.046 
20:50	28.8	28.8	28.8	72	20.9	2	6	338	0.00	30.046 
20:55	28.8	24.4	28.8	71	20.6	4	7	292	0.00	30.046 
21:00	28.8	28.8	28.8	70	20.3	3	9	338	0.00	30.052 
21:05	28.8	24.4	28.8	69	19.9	4	10	292	0.00	30.052 
21:10	28.8	24.4	28.8	68	19.6	4	11	270	0.00	30.052 
21:15	28.8	24.4	28.8	68	19.6	4	16	315	0.00	30.058 
21:20	28.8	24.4	28.8	66	18.9	4	13	292	0.00	30.058 
21:25	28.7	24.3	28.7	67	19.2	4	11	338	0.00	30.058 
21:30	28.7	28.7	28.7	67	19.2	3	12	292	0.00	30.064 
21:35	28.7	23.2	28.7	66	18.8	5	10	292	0.00	30.064 
21:40	28.7	23.2	28.7	65	18.4	5	11	292	0.00	30.064 
21:45	28.7	28.7	28.7	66	18.8	2	10	292	0.00	30.066 
21:50	28.7	24.3	28.7	65	18.4	4	11	292	0.00	30.066 
21:55	28.7	28.7	28.7	66	18.8	3	7	315	0.00	30.066 
22:00	28.7	23.2	28.7	65	18.4	5	11	292	0.00	30.074 
22:05	28.7	28.7	28.7	65	18.4	3	6	292	0.00	30.074 
22:10	28.7	28.7	28.7	65	18.4	2	7	292	0.00	30.074 
22:15	28.7	28.7	28.7	66	18.8	1	10	292	0.00	30.073 
22:20	28.7	28.7	28.7	66	18.8	3	9	292	0.00	30.073 
22:25	28.7	22.3	28.7	65	18.4	6	13	315	0.00	30.073 
22:30	28.7	28.7	28.7	65	18.4	3	9	338	0.00	30.084 
22:35	28.7	28.7	28.7	65	18.4	3	7	338	0.00	30.084 
22:40	28.5	28.5	28.5	66	18.6	3	7	270	0.00	30.084 
22:45	28.4	28.4	28.4	67	18.9	2	5	292	0.00	30.092 
22:50	28.2	28.2	28.2	67	18.7	2	6	292	0.00	30.092 
22:55	28.2	28.2	28.2	67	18.7	1	4	270	0.00	30.092 
23:00	28.2	28.2	28.2	67	18.7	2	6	292	0.00	30.094 
23:05	28.2	28.2	28.2	66	18.3	2	5	270	0.00	30.094 
23:10	28.2	28.2	28.2	66	18.3	1	6	292	0.00	30.094 
23:15	28.1	28.1	28.1	66	18.2	2	6	292	0.00	30.103 
23:20	28.1	28.1	28.1	66	18.2	1	5	0	0.00	30.103 
23:25	27.9	27.9	27.9	66	18.0	1	5	315	0.00	30.103 
23:30	27.9	27.9	27.9	65	17.7	1	4	292	0.00	30.107 
23:35	27.8	27.8	27.8	65	17.6	2	7	338	0.00	30.107 
23:40	27.6	27.6	27.6	65	17.4	2	5	292	0.00	30.107 
23:45	27.6	27.6	27.6	65	17.4	0	4	0	0.00	30.108 
23:50	27.5	27.5	27.5	65	17.3	1	5	315	0.00	30.108 
23:55	27.5	27.5	27.5	65	17.3	1	4	292	0.00	30.108 

CoCoRaHS
IN-AL-39
A2 Web Hosting
Creative Commons License
GoDaddy
search engine by freefind advanced

loaded 2018-11-17 12:34:36 • last modified 2010-11-18 10:43:29
Privacy PolicyDisclaimer
• wx.awcolley.com is powered by PmWiki v.2002016 •
• all content (unless otherwise noted) © 2018 A W Colley